createdAt,value
2023-03-11T00:00:01.122Z,18
2023-03-11T00:01:01.127Z,18.3
2023-03-11T00:02:01.268Z,18.5
2023-03-11T00:03:01.951Z,18.4
2023-03-11T00:04:01.968Z,18.4
2023-03-11T00:05:01.228Z,18.7
2023-03-11T00:06:01.160Z,18.9
2023-03-11T00:07:01.106Z,19.4
2023-03-11T00:08:01.080Z,19.5
2023-03-11T00:09:01.093Z,19.3
2023-03-11T00:10:01.131Z,19.3
2023-03-11T00:11:01.219Z,19.5
2023-03-11T00:12:01.847Z,19.6
2023-03-11T00:13:01.176Z,19
2023-03-11T00:14:01.435Z,19.1
2023-03-11T00:15:01.132Z,18.8
2023-03-11T00:16:01.076Z,18.9
2023-03-11T00:17:00.814Z,19.1
2023-03-11T00:18:00.545Z,18.6
2023-03-11T00:19:00.229Z,18.7
2023-03-11T00:19:59.921Z,18.9
2023-03-11T00:20:59.721Z,19.2
2023-03-11T00:22:01.351Z,19.2
2023-03-11T00:23:01.390Z,19.6
2023-03-11T00:24:02.093Z,19.9
2023-03-11T00:25:01.283Z,19.9
2023-03-11T00:26:01.061Z,20.3
2023-03-11T00:27:01.066Z,20.4
2023-03-11T00:28:01.069Z,20.9
2023-03-11T00:29:01.118Z,21.2
2023-03-11T00:30:01.120Z,21.5
2023-03-11T00:31:01.327Z,21.8
2023-03-11T00:32:01.487Z,22.1
2023-03-11T00:33:02.196Z,22.7
2023-03-11T00:34:01.271Z,23.1
2023-03-11T00:35:01.073Z,22.7
2023-03-11T00:36:01.257Z,22.2
2023-03-11T00:37:01.164Z,20.3
2023-03-11T00:38:01.192Z,19.2
2023-03-11T00:39:01.948Z,18.7
2023-03-11T00:40:01.888Z,18.7
2023-03-11T00:41:01.461Z,18.5
2023-03-11T00:42:03.974Z,18.3
2023-03-11T00:43:01.110Z,18.5
2023-03-11T00:44:01.108Z,18.6
2023-03-11T00:45:01.831Z,19.1
2023-03-11T00:46:02.097Z,18.5
2023-03-11T00:47:00.626Z,16.8
2023-03-11T00:48:00.526Z,16.8
2023-03-11T00:49:00.193Z,17.3
2023-03-11T00:49:59.895Z,16.7
2023-03-11T00:50:59.495Z,16.6
2023-03-11T00:52:02.715Z,16.6
2023-03-11T00:53:01.171Z,17
2023-03-11T00:54:01.176Z,17.4
2023-03-11T00:55:01.089Z,17.3
2023-03-11T00:56:01.054Z,17.2
2023-03-11T00:57:01.104Z,16.9
2023-03-11T00:58:01.102Z,16.7
2023-03-11T00:59:01.088Z,16.6
2023-03-11T01:00:01.104Z,16.5
2023-03-11T01:01:01.806Z,16.6
2023-03-11T01:02:01.173Z,16
2023-03-11T01:03:01.129Z,16.3
2023-03-11T01:04:01.122Z,15.9
2023-03-11T01:05:01.054Z,16.3
2023-03-11T01:06:05.137Z,16.5
2023-03-11T01:07:01.946Z,16.9
2023-03-11T01:08:01.522Z,17
2023-03-11T01:09:01.267Z,17.1
2023-03-11T01:10:01.174Z,17.5
2023-03-11T01:11:03.423Z,17.4
2023-03-11T01:12:01.065Z,17.8
2023-03-11T01:13:01.110Z,16.8
2023-03-11T01:14:01.094Z,16.1
2023-03-11T01:15:01.124Z,16.2
2023-03-11T01:16:11.749Z,15.5
2023-03-11T01:17:01.529Z,15
2023-03-11T01:18:01.108Z,15.6
2023-03-11T01:19:01.072Z,15.7
2023-03-11T01:20:01.127Z,16.4
2023-03-11T01:21:13.707Z,15.6
2023-03-11T01:22:02.564Z,15.4
2023-03-11T01:23:01.338Z,15.9
2023-03-11T01:24:02.514Z,16.2
2023-03-11T01:25:01.152Z,15.6
2023-03-11T01:26:16.624Z,15.5
2023-03-11T01:27:01.277Z,16.1
2023-03-11T01:28:02.154Z,16.4
2023-03-11T01:29:03.010Z,16.8
2023-03-11T01:30:01.075Z,17.2
2023-03-11T01:31:01.726Z,17
2023-03-11T01:32:01.950Z,17.3
2023-03-11T01:33:01.919Z,17.4
2023-03-11T01:34:01.274Z,17.4
2023-03-11T01:35:01.499Z,16.7
2023-03-11T01:36:01.285Z,16.6
2023-03-11T01:37:01.118Z,16.2
2023-03-11T01:38:01.131Z,16.1
2023-03-11T01:39:01.135Z,16.1
2023-03-11T01:40:01.166Z,16.6
2023-03-11T01:41:01.160Z,17.1
2023-03-11T01:42:01.266Z,17.1
2023-03-11T01:43:01.445Z,17.3
2023-03-11T01:44:00.949Z,16.8
2023-03-11T01:45:01.086Z,17
2023-03-11T01:46:00.703Z,17.4
2023-03-11T01:47:00.335Z,17.4
2023-03-11T01:48:00.049Z,17.1
2023-03-11T01:48:59.746Z,16.8
2023-03-11T01:50:01.859Z,16.8
2023-03-11T01:51:01.790Z,16.6
2023-03-11T01:52:01.227Z,17
2023-03-11T01:53:01.233Z,17.2
2023-03-11T01:54:01.246Z,17.5
2023-03-11T01:55:01.960Z,17.3
2023-03-11T01:56:01.031Z,17.4
2023-03-11T01:57:00.717Z,17.3
2023-03-11T01:58:00.444Z,17.2
2023-03-11T01:59:00.151Z,17.4
2023-03-11T01:59:59.830Z,17.6
2023-03-11T02:01:01.724Z,17.9
2023-03-11T02:02:02.269Z,18.3
2023-03-11T02:03:01.271Z,18.5
2023-03-11T02:04:02.297Z,18.5
2023-03-11T02:05:01.964Z,18.4
2023-03-11T02:06:01.315Z,18.7
2023-03-11T02:07:02.240Z,18.7
2023-03-11T02:08:01.935Z,18.8
2023-03-11T02:09:00.903Z,19
2023-03-11T02:10:01.139Z,19.3
2023-03-11T02:11:01.136Z,19.3
2023-03-11T02:12:01.546Z,19.5
2023-03-11T02:13:01.192Z,20
2023-03-11T02:14:01.169Z,20
2023-03-11T02:15:01.188Z,20
2023-03-11T02:16:01.083Z,20
2023-03-11T02:17:01.077Z,20
2023-03-11T02:18:00.673Z,20
2023-03-11T02:19:00.368Z,20
2023-03-11T02:20:00.317Z,20
2023-03-11T02:21:00.084Z,20
2023-03-11T02:21:59.768Z,19.9
2023-03-11T02:23:02.623Z,19.9
2023-03-11T02:24:01.513Z,19.9
2023-03-11T02:25:01.235Z,20
2023-03-11T02:26:01.358Z,20.2
2023-03-11T02:27:01.137Z,20.5
2023-03-11T02:28:01.080Z,20.3
2023-03-11T02:29:01.073Z,20.3
2023-03-11T02:30:00.862Z,20.2
2023-03-11T02:31:00.645Z,20.2
2023-03-11T02:32:00.613Z,20.6
2023-03-11T02:33:00.348Z,20.6
2023-03-11T02:34:00.068Z,20.6
2023-03-11T02:34:59.873Z,20.6
2023-03-11T02:35:59.568Z,20.4
2023-03-11T02:37:01.218Z,20.6
2023-03-11T02:38:01.960Z,20.9
2023-03-11T02:39:01.128Z,20.8
2023-03-11T02:40:01.141Z,21
2023-03-11T02:41:01.137Z,21.2
2023-03-11T02:42:01.133Z,21
2023-03-11T02:43:01.133Z,20.8
2023-03-11T02:44:01.829Z,21.2
2023-03-11T02:45:01.154Z,21.2
2023-03-11T02:46:01.148Z,20.7
2023-03-11T02:47:01.483Z,20.9
2023-03-11T02:48:01.275Z,21.2
2023-03-11T02:49:01.854Z,21.2
2023-03-11T02:50:01.128Z,21.5
2023-03-11T02:51:01.082Z,21.4
2023-03-11T02:52:03.740Z,21.4
2023-03-11T02:53:01.064Z,21.7
2023-03-11T02:54:01.101Z,21.5
2023-03-11T02:55:01.505Z,21.7
2023-03-11T02:56:01.221Z,21.6
2023-03-11T02:57:07.991Z,21.5
2023-03-11T02:58:01.132Z,21.5
2023-03-11T02:59:01.151Z,21.2
2023-03-11T03:00:01.161Z,21.2
2023-03-11T03:01:01.569Z,21.2
2023-03-11T03:02:10.488Z,21.4
2023-03-11T03:03:01.187Z,21.7
2023-03-11T03:04:01.217Z,21.8
2023-03-11T03:05:01.885Z,22.2
2023-03-11T03:06:01.191Z,22.4
2023-03-11T03:07:12.812Z,22.3
2023-03-11T03:08:01.090Z,22
2023-03-11T03:09:03.787Z,22.3
2023-03-11T03:10:01.998Z,22.2
2023-03-11T03:11:01.855Z,22.1
2023-03-11T03:12:15.410Z,22.5
2023-03-11T03:13:02.535Z,22.5
2023-03-11T03:14:01.322Z,22.5
2023-03-11T03:15:02.220Z,22.4
2023-03-11T03:16:01.143Z,22.5
2023-03-11T03:17:01.333Z,22.2
2023-03-11T03:18:01.063Z,22.3
2023-03-11T03:19:01.062Z,22.4
2023-03-11T03:20:01.121Z,22.2
2023-03-11T03:21:01.065Z,22.1
2023-03-11T03:22:01.068Z,22.2
2023-03-11T03:23:01.460Z,22.3
2023-03-11T03:24:01.191Z,22.4
2023-03-11T03:25:02.444Z,22.5
2023-03-11T03:26:01.177Z,22.4
2023-03-11T03:27:01.221Z,22.3
2023-03-11T03:28:01.197Z,22.5
2023-03-11T03:29:01.108Z,22.9
2023-03-11T03:30:01.126Z,22.9
2023-03-11T03:31:01.142Z,22.7
2023-03-11T03:32:01.282Z,22.8
2023-03-11T03:33:01.541Z,22.8
2023-03-11T03:34:01.537Z,22.6
2023-03-11T03:35:02.166Z,22.7
2023-03-11T03:36:01.326Z,23
2023-03-11T03:37:03.985Z,23.2
2023-03-11T03:38:01.062Z,23.2
2023-03-11T03:39:01.085Z,23.3
2023-03-11T03:40:01.085Z,23
2023-03-11T03:41:01.117Z,22.8
2023-03-11T03:42:01.313Z,22.9
2023-03-11T03:43:01.132Z,23.4
2023-03-11T03:44:01.065Z,23.8
2023-03-11T03:45:01.089Z,23.6
2023-03-11T03:46:01.233Z,23.4
2023-03-11T03:47:01.126Z,23.5
2023-03-11T03:48:01.133Z,23.3
2023-03-11T03:49:01.948Z,23.4
2023-03-11T03:50:01.426Z,23.5
2023-03-11T03:51:01.541Z,23.4
2023-03-11T03:52:01.277Z,23.2
2023-03-11T03:53:01.971Z,23.2
2023-03-11T03:54:01.079Z,23.7
2023-03-11T03:55:01.110Z,23.7
2023-03-11T03:56:06.808Z,23.6
2023-03-11T03:57:01.503Z,23.6
2023-03-11T03:58:00.785Z,23.5
2023-03-11T03:59:01.488Z,23.6
2023-03-11T04:00:01.488Z,23.8
2023-03-11T04:01:01.267Z,24.2
2023-03-11T04:02:01.195Z,24.1
2023-03-11T04:03:01.166Z,24.1
2023-03-11T04:04:01.138Z,24.3
2023-03-11T04:05:04.569Z,24.1
2023-03-11T04:06:01.160Z,24.3
2023-03-11T04:07:01.171Z,24.6
2023-03-11T04:08:01.189Z,24.8
2023-03-11T04:09:01.431Z,24.8
2023-03-11T04:10:02.184Z,24.7
2023-03-11T04:11:01.133Z,24.7
2023-03-11T04:12:01.095Z,24.4
2023-03-11T04:13:01.121Z,24.2
2023-03-11T04:14:01.099Z,24.2
2023-03-11T04:15:01.135Z,24.4
2023-03-11T04:16:01.087Z,24.7
2023-03-11T04:17:01.214Z,24.6
2023-03-11T04:18:01.499Z,24.5
2023-03-11T04:19:01.240Z,24.4
2023-03-11T04:20:02.946Z,24.1
2023-03-11T04:21:01.441Z,24.1
2023-03-11T04:22:01.146Z,24.2
2023-03-11T04:23:01.135Z,24.3
2023-03-11T04:24:01.265Z,24.4
2023-03-11T04:25:01.218Z,24.5
2023-03-11T04:26:01.904Z,24.7
2023-03-11T04:27:01.210Z,24.8
2023-03-11T04:28:01.089Z,24.7
2023-03-11T04:29:01.197Z,24.4
2023-03-11T04:30:01.132Z,24.6
2023-03-11T04:31:02.262Z,24.5
2023-03-11T04:32:01.297Z,24.4
2023-03-11T04:33:00.956Z,24.3
2023-03-11T04:34:01.513Z,24.5
2023-03-11T04:35:01.150Z,24.7
2023-03-11T04:36:01.225Z,24.9
2023-03-11T04:37:01.146Z,24.8
2023-03-11T04:38:03.715Z,24.6
2023-03-11T04:39:01.163Z,24.8
2023-03-11T04:40:01.393Z,24.9
2023-03-11T04:41:01.257Z,25.1
2023-03-11T04:42:03.610Z,25.1
2023-03-11T04:43:05.888Z,25.1
2023-03-11T04:44:01.505Z,25.5
2023-03-11T04:45:05.124Z,25.5
2023-03-11T04:46:01.844Z,25.4
2023-03-11T04:47:01.146Z,25.4
2023-03-11T04:48:09.504Z,25.4
2023-03-11T04:49:01.114Z,25.4
2023-03-11T04:50:01.135Z,25.4
2023-03-11T04:51:01.154Z,25.6
2023-03-11T04:52:01.143Z,25.7
2023-03-11T04:53:11.621Z,25.9
2023-03-11T04:54:01.146Z,25.8
2023-03-11T04:55:06.122Z,26
2023-03-11T04:56:01.174Z,26.1
2023-03-11T04:57:01.152Z,25.9
2023-03-11T04:58:14.112Z,25.9
2023-03-11T04:59:01.195Z,25.9
2023-03-11T05:00:01.116Z,26
2023-03-11T05:01:01.207Z,25.6
2023-03-11T05:02:01.093Z,25.7
2023-03-11T05:03:16.283Z,25.4
2023-03-11T05:04:01.668Z,25.7
2023-03-11T05:05:04.256Z,25.8
2023-03-11T05:06:01.956Z,25.9
2023-03-11T05:07:01.431Z,25.8
2023-03-11T05:08:01.142Z,26.1
2023-03-11T05:09:01.186Z,26
2023-03-11T05:10:01.137Z,26
2023-03-11T05:11:01.165Z,25.9
2023-03-11T05:12:01.207Z,25.8
2023-03-11T05:13:01.188Z,26
2023-03-11T05:14:01.202Z,26.2
2023-03-11T05:15:01.088Z,25.9
2023-03-11T05:16:01.139Z,25.9
2023-03-11T05:17:01.079Z,25.7
2023-03-11T05:18:01.345Z,25.7
2023-03-11T05:19:01.175Z,25.8
2023-03-11T05:20:01.537Z,25.8
2023-03-11T05:21:01.195Z,25.9
2023-03-11T05:22:01.225Z,25.9
2023-03-11T05:23:01.131Z,25.7
2023-03-11T05:24:01.127Z,25.4
2023-03-11T05:25:01.126Z,25.4
2023-03-11T05:26:01.154Z,25.7
2023-03-11T05:27:01.527Z,25.6
2023-03-11T05:28:01.141Z,25.4
2023-03-11T05:29:01.286Z,25.5
2023-03-11T05:30:01.355Z,25.6
2023-03-11T05:31:01.131Z,25.6
2023-03-11T05:32:01.066Z,25.4
2023-03-11T05:33:01.078Z,25.3
2023-03-11T05:34:01.098Z,25.3
2023-03-11T05:35:01.087Z,25.2
2023-03-11T05:36:01.164Z,25.4
2023-03-11T05:37:03.091Z,25.4
2023-03-11T05:38:01.104Z,25.3
2023-03-11T05:39:01.830Z,25.4
2023-03-11T05:40:01.054Z,25.4
2023-03-11T05:41:01.383Z,25.5
2023-03-11T05:42:01.451Z,25.3
2023-03-11T05:43:02.577Z,25.1
2023-03-11T05:44:01.153Z,25.2
2023-03-11T05:45:01.160Z,25.4
2023-03-11T05:46:01.071Z,25.6
2023-03-11T05:47:01.167Z,25.4
2023-03-11T05:48:01.086Z,25.4
2023-03-11T05:49:01.477Z,25.4
2023-03-11T05:50:01.086Z,25.1
2023-03-11T05:51:00.802Z,25
2023-03-11T05:52:01.099Z,25.1
2023-03-11T05:53:01.228Z,24.9
2023-03-11T05:54:02.031Z,24.6
2023-03-11T05:55:01.956Z,24.8
2023-03-11T05:56:01.343Z,24.8
2023-03-11T05:57:01.396Z,24.9
2023-03-11T05:58:01.384Z,25
2023-03-11T05:59:01.139Z,24.8
2023-03-11T06:00:01.725Z,24.9
2023-03-11T06:01:02.182Z,24.6
2023-03-11T06:02:01.834Z,24.6
2023-03-11T06:03:01.203Z,24.7
2023-03-11T06:04:01.214Z,24.6
2023-03-11T06:05:02.134Z,24.6
2023-03-11T06:06:01.199Z,24.3
2023-03-11T06:07:01.233Z,24.6
2023-03-11T06:08:01.274Z,24.5
2023-03-11T06:09:01.173Z,24.5
2023-03-11T06:10:01.130Z,24.6
2023-03-11T06:11:00.940Z,24.4
2023-03-11T06:12:01.135Z,24.3
2023-03-11T06:13:01.132Z,24.2
2023-03-11T06:14:01.129Z,24.6
2023-03-11T06:15:01.287Z,24.9
2023-03-11T06:16:01.400Z,24.8
2023-03-11T06:17:01.142Z,24.6
2023-03-11T06:18:01.136Z,24.9
2023-03-11T06:19:01.199Z,25
2023-03-11T06:20:01.088Z,24.9
2023-03-11T06:21:01.892Z,25
2023-03-11T06:22:01.756Z,25
2023-03-11T06:23:01.082Z,24.7
2023-03-11T06:24:01.101Z,24.4
2023-03-11T06:25:01.359Z,24.4
2023-03-11T06:26:01.378Z,24.4
2023-03-11T06:27:01.496Z,24.2
2023-03-11T06:28:02.143Z,24.3
2023-03-11T06:29:02.726Z,24.5
2023-03-11T06:30:02.166Z,24.1
2023-03-11T06:31:02.957Z,23.9
2023-03-11T06:32:01.335Z,23.7
2023-03-11T06:33:01.148Z,23.9
2023-03-11T06:34:04.771Z,24
2023-03-11T06:35:01.157Z,24
2023-03-11T06:36:01.492Z,24.1
2023-03-11T06:37:01.469Z,24.1
2023-03-11T06:38:01.079Z,24.1
2023-03-11T06:39:08.428Z,24.4
2023-03-11T06:40:01.116Z,24.4
2023-03-11T06:41:01.130Z,24.2
2023-03-11T06:42:01.105Z,24
2023-03-11T06:43:01.124Z,23.7
2023-03-11T06:44:10.637Z,23.5
2023-03-11T06:45:01.235Z,23.5
2023-03-11T06:46:08.260Z,23.4
2023-03-11T06:47:01.144Z,23.5
2023-03-11T06:48:01.213Z,23.7
2023-03-11T06:49:14.143Z,23.5
2023-03-11T06:50:00.923Z,23.6
2023-03-11T06:51:00.647Z,23.7
2023-03-11T06:52:00.343Z,23.6
2023-03-11T06:53:00.000Z,23.4
2023-03-11T06:53:59.621Z,23.3
2023-03-11T06:55:01.443Z,23.1
2023-03-11T06:56:01.110Z,23.2
2023-03-11T06:57:01.043Z,23.1
2023-03-11T06:58:01.180Z,23
2023-03-11T06:59:01.820Z,23
2023-03-11T07:00:01.399Z,23.1
2023-03-11T07:01:01.213Z,23
2023-03-11T07:02:01.793Z,23
2023-03-11T07:03:02.397Z,23.2
2023-03-11T07:04:01.612Z,23.1
2023-03-11T07:05:01.070Z,22.9
2023-03-11T07:06:01.161Z,23
2023-03-11T07:07:01.154Z,23.1
2023-03-11T07:08:01.080Z,23.2
2023-03-11T07:09:01.072Z,22.2
2023-03-11T07:10:01.087Z,22.2
2023-03-11T07:11:01.804Z,22.7
2023-03-11T07:12:01.236Z,22.8
2023-03-11T07:13:01.250Z,22.2
2023-03-11T07:14:01.488Z,22
2023-03-11T07:15:02.102Z,22.2
2023-03-11T07:16:02.612Z,22.3
2023-03-11T07:17:01.322Z,22.2
2023-03-11T07:18:02.677Z,21.9
2023-03-11T07:19:01.327Z,21.7
2023-03-11T07:20:01.960Z,21.6
2023-03-11T07:21:01.153Z,21.5
2023-03-11T07:22:01.249Z,21.3
2023-03-11T07:23:01.551Z,21.3
2023-03-11T07:24:04.132Z,21.3
2023-03-11T07:25:01.795Z,21.5
2023-03-11T07:26:04.113Z,21.3
2023-03-11T07:27:01.243Z,21.4
2023-03-11T07:28:01.097Z,21.2
2023-03-11T07:29:01.108Z,21.5
2023-03-11T07:30:03.220Z,21.5
2023-03-11T07:31:01.705Z,21
2023-03-11T07:32:01.178Z,21
2023-03-11T07:33:01.933Z,21.4
2023-03-11T07:34:01.152Z,21.4
2023-03-11T07:35:00.838Z,21.1
2023-03-11T07:36:00.563Z,21.1
2023-03-11T07:37:00.226Z,20.7
2023-03-11T07:37:59.923Z,21.1
2023-03-11T07:38:59.720Z,20.4
2023-03-11T07:40:01.472Z,20.1
2023-03-11T07:41:01.154Z,20
2023-03-11T07:42:01.074Z,20
2023-03-11T07:43:01.119Z,20
2023-03-11T07:44:01.096Z,19.7
2023-03-11T07:45:01.105Z,19.7
2023-03-11T07:46:01.548Z,19.7
2023-03-11T07:47:01.134Z,19.9
2023-03-11T07:48:01.129Z,19.9
2023-03-11T07:49:01.117Z,19.6
2023-03-11T07:50:00.837Z,19.6
2023-03-11T07:51:01.148Z,19.6
2023-03-11T07:52:01.145Z,19.6
2023-03-11T07:53:01.393Z,19.4
2023-03-11T07:54:02.591Z,19.1
2023-03-11T07:55:02.024Z,19
2023-03-11T07:56:01.204Z,19.1
2023-03-11T07:57:01.065Z,19.3
2023-03-11T07:58:01.088Z,19.1
2023-03-11T07:59:01.099Z,19
2023-03-11T08:00:01.511Z,18.9
2023-03-11T08:01:01.181Z,18.8
2023-03-11T08:02:01.193Z,19
2023-03-11T08:03:01.145Z,19.1
2023-03-11T08:04:01.179Z,19.6
2023-03-11T08:05:04.540Z,19.6
2023-03-11T08:06:01.172Z,19.6
2023-03-11T08:07:01.129Z,19.6
2023-03-11T08:08:01.966Z,19.6
2023-03-11T08:09:01.170Z,19.6
2023-03-11T08:10:01.626Z,19.7
2023-03-11T08:11:02.265Z,20.3
2023-03-11T08:12:02.989Z,20.5
2023-03-11T08:13:02.025Z,21.1
2023-03-11T08:14:01.137Z,21.4
2023-03-11T08:15:04.508Z,21.5
2023-03-11T08:16:01.157Z,21.8
2023-03-11T08:17:01.099Z,21.6
2023-03-11T08:18:01.261Z,21.7
2023-03-11T08:19:01.512Z,21.4
2023-03-11T08:20:07.631Z,20.7
2023-03-11T08:21:01.132Z,20.6
2023-03-11T08:22:01.922Z,20.5
2023-03-11T08:23:02.503Z,20.5
2023-03-11T08:24:01.155Z,20
2023-03-11T08:25:10.026Z,20
2023-03-11T08:26:01.169Z,19.3
2023-03-11T08:27:01.626Z,19.1
2023-03-11T08:28:02.003Z,19.4
2023-03-11T08:29:01.627Z,19.5
2023-03-11T08:30:11.907Z,19.6
2023-03-11T08:31:01.493Z,19.6
2023-03-11T08:32:01.142Z,19.6
2023-03-11T08:33:01.794Z,19.6
2023-03-11T08:34:01.098Z,19.6
2023-03-11T08:35:15.697Z,19.5
2023-03-11T08:36:01.382Z,19.6
2023-03-11T08:37:01.053Z,18.6
2023-03-11T08:38:01.120Z,18.6
2023-03-11T08:39:01.259Z,18.6
2023-03-11T08:40:01.122Z,18
2023-03-11T08:41:01.153Z,18.3
2023-03-11T08:42:01.470Z,18.2
2023-03-11T08:43:01.482Z,17.2
2023-03-11T08:44:01.492Z,16.5
2023-03-11T08:45:01.510Z,16.5
2023-03-11T08:46:04.080Z,15.8
2023-03-11T08:47:01.084Z,15.6
2023-03-11T08:48:01.078Z,15.7
2023-03-11T08:49:01.662Z,15.6
2023-03-11T08:50:01.485Z,15.4
2023-03-11T08:51:01.129Z,15.5
2023-03-11T08:52:01.123Z,14.8
2023-03-11T08:53:01.111Z,14.5
2023-03-11T08:54:01.080Z,14.5
2023-03-11T08:55:01.056Z,14.7
2023-03-11T08:56:01.136Z,14.4
2023-03-11T08:57:01.151Z,14.4
2023-03-11T08:58:01.357Z,13.8
2023-03-11T08:59:01.259Z,13.7
2023-03-11T09:00:01.388Z,13.3
2023-03-11T09:01:01.135Z,13.7
2023-03-11T09:02:01.800Z,13.6
2023-03-11T09:03:02.077Z,13.3
2023-03-11T09:04:01.629Z,13.5
2023-03-11T09:05:01.088Z,13.6
2023-03-11T09:06:01.568Z,13.5
2023-03-11T09:07:01.205Z,13.5
2023-03-11T09:08:01.121Z,13.7
2023-03-11T09:09:01.108Z,14
2023-03-11T09:10:00.809Z,13.9
2023-03-11T09:11:01.154Z,14.1
2023-03-11T09:12:01.505Z,14.1
2023-03-11T09:13:01.175Z,13.7
2023-03-11T09:14:01.149Z,13.9
2023-03-11T09:15:01.141Z,13.7
2023-03-11T09:16:01.237Z,13
2023-03-11T09:17:01.105Z,13.2
2023-03-11T09:18:01.136Z,13.6
2023-03-11T09:19:01.127Z,13.7
2023-03-11T09:20:01.089Z,13.8
2023-03-11T09:21:01.508Z,14
2023-03-11T09:22:01.109Z,13.6
2023-03-11T09:23:01.144Z,13.7
2023-03-11T09:24:01.245Z,13.9
2023-03-11T09:25:01.104Z,13.5
2023-03-11T09:26:01.131Z,12.4
2023-03-11T09:27:01.128Z,12.3
2023-03-11T09:28:01.128Z,12.5
2023-03-11T09:29:01.138Z,12.6
2023-03-11T09:30:00.815Z,12
2023-03-11T09:31:01.211Z,10.5
2023-03-11T09:32:01.146Z,10
2023-03-11T09:33:01.157Z,10.6
2023-03-11T09:34:01.068Z,10.7
2023-03-11T09:35:01.109Z,11
2023-03-11T09:36:01.116Z,10.3
2023-03-11T09:37:01.916Z,10.9
2023-03-11T09:38:01.093Z,10.7
2023-03-11T09:39:01.134Z,10.8
2023-03-11T09:40:01.111Z,9.8
2023-03-11T09:41:01.121Z,9.8
2023-03-11T09:42:01.788Z,9.3
2023-03-11T09:43:01.117Z,8.9
2023-03-11T09:44:01.137Z,9
2023-03-11T09:45:01.160Z,9
2023-03-11T09:46:00.760Z,9.1
2023-03-11T09:47:01.226Z,8.6
2023-03-11T09:48:03.068Z,9.5
2023-03-11T09:49:01.967Z,12.5
2023-03-11T09:50:00.651Z,11.9
2023-03-11T09:51:00.353Z,11
2023-03-11T09:51:59.923Z,9.1
2023-03-11T09:52:59.528Z,9.4
2023-03-11T09:54:01.290Z,9.6
2023-03-11T09:55:02.077Z,8.6
2023-03-11T09:56:07.398Z,8.9
2023-03-11T09:57:01.100Z,8.4
2023-03-11T09:58:01.061Z,9.7
2023-03-11T09:59:01.136Z,10.1
2023-03-11T10:00:01.125Z,10.1
2023-03-11T10:01:05.180Z,10.1
2023-03-11T10:02:04.336Z,8.4
2023-03-11T10:03:01.270Z,7.7
2023-03-11T10:04:02.178Z,7.5
2023-03-11T10:05:01.264Z,7.9
2023-03-11T10:06:13.240Z,8.3
2023-03-11T10:07:01.064Z,8.4
2023-03-11T10:08:01.085Z,8.8
2023-03-11T10:09:01.124Z,7.2
2023-03-11T10:10:01.845Z,5.9
2023-03-11T10:11:16.044Z,6.3
2023-03-11T10:12:01.066Z,6.5
2023-03-11T10:13:01.048Z,6.4
2023-03-11T10:14:01.121Z,5.1
2023-03-11T10:15:01.130Z,5.7
2023-03-11T10:16:01.845Z,6.3
2023-03-11T10:17:01.454Z,5.2
2023-03-11T10:18:01.189Z,5
2023-03-11T10:19:01.381Z,5.1
2023-03-11T10:20:01.560Z,4.5
2023-03-11T10:21:01.286Z,4.8
2023-03-11T10:22:01.961Z,5.7
2023-03-11T10:23:01.095Z,5.5
2023-03-11T10:24:01.060Z,5.2
2023-03-11T10:25:01.121Z,5.5
2023-03-11T10:26:01.084Z,5.8
2023-03-11T10:27:01.089Z,5.7
2023-03-11T10:28:01.796Z,5.9
2023-03-11T10:29:01.238Z,5.9
2023-03-11T10:30:01.416Z,6
2023-03-11T10:31:01.544Z,6.6
2023-03-11T10:32:01.179Z,6.3
2023-03-11T10:33:01.337Z,6.4
2023-03-11T10:34:02.698Z,5.6
2023-03-11T10:35:02.568Z,6
2023-03-11T10:36:01.517Z,5.8
2023-03-11T10:37:01.154Z,5.7
2023-03-11T10:38:01.466Z,5.2
2023-03-11T10:39:01.078Z,5.8
2023-03-11T10:40:01.062Z,6
2023-03-11T10:41:01.089Z,5.6
2023-03-11T10:42:01.198Z,5.1
2023-03-11T10:43:01.096Z,5.1
2023-03-11T10:44:01.093Z,5.4
2023-03-11T10:45:01.100Z,5.1
2023-03-11T10:46:01.164Z,5
2023-03-11T10:47:01.134Z,5.6
2023-03-11T10:48:01.322Z,5.4
2023-03-11T10:49:01.132Z,6
2023-03-11T10:50:01.129Z,4.9
2023-03-11T10:51:01.514Z,5
2023-03-11T10:52:01.071Z,5
2023-03-11T10:53:00.833Z,4.8
2023-03-11T10:54:00.474Z,4.4
2023-03-11T10:55:00.162Z,4.9
2023-03-11T10:55:59.835Z,5.1
2023-03-11T10:57:02.193Z,4
2023-03-11T10:58:01.279Z,4
2023-03-11T10:59:01.917Z,4.1
2023-03-11T11:00:02.122Z,3.1
2023-03-11T11:01:01.317Z,2.3
2023-03-11T11:02:01.121Z,2.8
2023-03-11T11:03:01.107Z,3.3
2023-03-11T11:04:01.219Z,3.7
2023-03-11T11:05:01.138Z,3.3
2023-03-11T11:06:01.132Z,3.8
2023-03-11T11:07:01.534Z,4.5
2023-03-11T11:08:01.725Z,4.3
2023-03-11T11:09:01.170Z,4
2023-03-11T11:10:01.253Z,4.3
2023-03-11T11:11:01.855Z,4.5
2023-03-11T11:12:01.076Z,3.6
2023-03-11T11:13:00.862Z,4.2
2023-03-11T11:14:00.812Z,5.4
2023-03-11T11:15:00.462Z,6
2023-03-11T11:16:00.169Z,7.4
2023-03-11T11:16:59.876Z,5.4
2023-03-11T11:17:59.550Z,5.3
2023-03-11T11:19:01.127Z,4.8
2023-03-11T11:20:01.115Z,4.3
2023-03-11T11:21:01.087Z,4.2
2023-03-11T11:22:01.172Z,3.9
2023-03-11T11:23:01.203Z,4.1
2023-03-11T11:24:01.154Z,3.8
2023-03-11T11:25:01.413Z,3.9
2023-03-11T11:26:01.381Z,4.3
2023-03-11T11:27:01.071Z,3.8
2023-03-11T11:28:01.078Z,4.1
2023-03-11T11:29:01.078Z,3.9
2023-03-11T11:30:01.212Z,3.6
2023-03-11T11:31:01.144Z,4.2
2023-03-11T11:32:01.100Z,4.8
2023-03-11T11:33:00.782Z,5
2023-03-11T11:34:00.500Z,5
2023-03-11T11:35:00.129Z,5.4
2023-03-11T11:35:59.775Z,5.6
2023-03-11T11:37:02.656Z,5.8
2023-03-11T11:38:01.200Z,6.1
2023-03-11T11:39:01.184Z,6.5
2023-03-11T11:40:01.136Z,7.2
2023-03-11T11:41:01.147Z,7.4
2023-03-11T11:42:05.834Z,7.5
2023-03-11T11:43:02.068Z,7.5
2023-03-11T11:44:01.620Z,7.1
2023-03-11T11:45:01.067Z,7.1
2023-03-11T11:46:01.135Z,7.6
2023-03-11T11:47:08.507Z,7.9
2023-03-11T11:48:01.282Z,8.1
2023-03-11T11:49:02.146Z,7.8
2023-03-11T11:50:04.617Z,7.8
2023-03-11T11:51:01.898Z,8.1
2023-03-11T11:52:10.588Z,8.1
2023-03-11T11:53:00.889Z,7.3
2023-03-11T11:54:01.538Z,6.8
2023-03-11T11:55:01.133Z,6.4
2023-03-11T11:56:01.148Z,6.7
2023-03-11T11:57:13.624Z,7.1
2023-03-11T11:58:01.042Z,6.5
2023-03-11T11:59:00.735Z,6
2023-03-11T12:00:00.550Z,6.3
2023-03-11T12:01:00.700Z,5.7
2023-03-11T12:02:16.346Z,6
2023-03-11T12:03:01.247Z,6.6
2023-03-11T12:04:02.362Z,6.4
2023-03-11T12:05:02.127Z,6.4
2023-03-11T12:06:02.954Z,4.7
2023-03-11T12:07:01.086Z,4.9
2023-03-11T12:08:01.121Z,5.1
2023-03-11T12:09:01.216Z,5.1
2023-03-11T12:10:12.926Z,5.1
2023-03-11T12:11:01.049Z,5.6
2023-03-11T12:12:01.565Z,6
2023-03-11T12:13:01.220Z,6.1
2023-03-11T12:14:01.985Z,5.8
2023-03-11T12:15:02.516Z,6
2023-03-11T12:16:01.164Z,5.6
2023-03-11T12:17:03.881Z,5.8
2023-03-11T12:18:01.069Z,5.6
2023-03-11T12:19:01.107Z,6
2023-03-11T12:20:01.089Z,5.1
2023-03-11T12:21:01.094Z,5.4
2023-03-11T12:22:01.120Z,5.1
2023-03-11T12:23:01.343Z,5.1
2023-03-11T12:24:01.110Z,5.3
2023-03-11T12:25:01.852Z,5.2
2023-03-11T12:26:01.923Z,4.7
2023-03-11T12:27:01.832Z,4.5
2023-03-11T12:28:01.530Z,5
2023-03-11T12:29:01.155Z,5.1
2023-03-11T12:30:01.189Z,5.3
2023-03-11T12:31:02.096Z,5.3
2023-03-11T12:32:01.081Z,5.6
2023-03-11T12:33:00.751Z,5.9
2023-03-11T12:34:01.072Z,6.5
2023-03-11T12:35:01.089Z,7.4
2023-03-11T12:36:01.557Z,8
2023-03-11T12:37:01.477Z,8.8
2023-03-11T12:38:01.080Z,9
2023-03-11T12:39:03.856Z,9.8
2023-03-11T12:40:01.212Z,10.1
2023-03-11T12:41:02.442Z,9.7
2023-03-11T12:42:01.942Z,10.1
2023-03-11T12:43:01.080Z,10.1
2023-03-11T12:44:01.156Z,10.2
2023-03-11T12:45:01.136Z,9.9
2023-03-11T12:46:01.253Z,9.9
2023-03-11T12:47:01.971Z,10
2023-03-11T12:48:02.508Z,10.2
2023-03-11T12:49:01.174Z,9.5
2023-03-11T12:50:01.065Z,10
2023-03-11T12:51:01.067Z,10.1
2023-03-11T12:52:01.102Z,10.1
2023-03-11T12:53:00.776Z,10.1
2023-03-11T12:54:00.471Z,10.6
2023-03-11T12:55:00.058Z,10.5
2023-03-11T12:55:59.682Z,10.6
2023-03-11T12:57:01.879Z,10
2023-03-11T12:58:01.212Z,10.1
2023-03-11T12:59:01.453Z,10.4
2023-03-11T13:00:01.145Z,10.5
2023-03-11T13:01:01.911Z,10.2
2023-03-11T13:02:01.607Z,10.2
2023-03-11T13:03:02.208Z,11
2023-03-11T13:04:01.379Z,10.6
2023-03-11T13:05:02.536Z,10.2
2023-03-11T13:06:01.083Z,9.4
2023-03-11T13:07:01.339Z,10.2
2023-03-11T13:08:01.110Z,10.2
2023-03-11T13:09:01.098Z,9.9
2023-03-11T13:10:01.104Z,9.7
2023-03-11T13:11:01.131Z,10.1
2023-03-11T13:12:01.163Z,9.7
2023-03-11T13:13:00.799Z,9.8
2023-03-11T13:14:01.520Z,7.8
2023-03-11T13:15:02.717Z,8.1
2023-03-11T13:16:02.362Z,7.3
2023-03-11T13:17:02.579Z,6.9
2023-03-11T13:18:01.332Z,6.2
2023-03-11T13:19:02.567Z,6
2023-03-11T13:20:02.207Z,6.6
2023-03-11T13:21:01.687Z,7.6
2023-03-11T13:22:01.190Z,8.7
2023-03-11T13:23:01.146Z,8.7
2023-03-11T13:24:01.109Z,8.4
2023-03-11T13:25:01.167Z,6.2
2023-03-11T13:26:01.204Z,6.8
2023-03-11T13:27:04.502Z,5.1
2023-03-11T13:28:04.698Z,5
2023-03-11T13:29:02.519Z,4.7
2023-03-11T13:30:01.134Z,4.6
2023-03-11T13:31:01.002Z,4.1